الصفحة الرئيسية
METAR-TAF:

METAR-TAF

مطار :

Majuro, جزر مارشال

دائرة عرض: 07-04N, خط طول: 171-17E, ارتفاع: 2 متر

مراقبة الطقس الحالي

تاريخ ووقت الإصدار 18ساعات و 19 دقيقة قبل الساعة 23:56UTC
ريح 5 عقدة من الشمال/الشمال الشرقي
درجة الحرارة 31°درجة مئوية
الرطوبة 71%
ضغط 1009 hPa
الرؤية: 24.1 كم
غيوم قليلة على ارتفاع 1500 قدم
غيوم متفرقة على ارتفاع 5000 قدم
غيوم مفككة على ارتفاع 30000 قدم

METAR: PKMJ 152356Z 03005KT 15SM FEW015 SCT050 BKN300 31/25 A2981 RMK LAST

زمن: 06:15 (18:15 UTC)

توقعات

تاريخ ووقت الإصدار 55 دقيقة قبل الساعة 17:20UTC
التوقعات صالحة من16 الساعة 18 UTC إلى 17 الساعة 18 UTC
ريح 5 عقدة من الشرق/الشمال الشرقي
الرؤية: 10 كم
غيوم متفرقة على ارتفاع 1500 قدم
غيوم متفرقة على ارتفاع 5000 قدم
غيوم مفككة على ارتفاع 30000 قدم
زخات في الجوار
مؤقت
من 16 الساعة 18 UTC إلى 16 الساعة 22 UTC
غيوم متفرقة على ارتفاع 1500 قدم
غيوم مفككة على ارتفاع 3000 قدم
غيوم مفككة على ارتفاع 10000 قدم
زخات من الأمطار الخفيفة

TAF: PKMJ 161720Z 1618/1718 06005KT P6SM VCSH SCT015 SCT050 BKN300 TEMPO 1618/1622 -SHRA SCT015 BKN030 BKN100

أرصاد الطقس والتوقعات من أكثر من 4000 مطار (تقارير الطقس للمطار METAR والتنبؤ بالطقس بالمطارTAF).

المحطات المتاحة هي النقط الصفراء والحمراء على الخريطة.

حرك المؤشر فوق النقطة لمعرفة اسم المحطة.

ثم انقر لمعرفة أرصاد وتوقعات الطقس.

لتغيير الخارطة: اضغط على الأزرار الخضراء مع رمز الصليب الأسود للتكبير. على الزر الأخضر مع شرطة للتصغير، أو على الأسهم الخضراء للخرائط المجاورة.


METAR-TAF: